sensor_id;sensor_type;location;lat;lon;timestamp;temperature;humidity
212;DHT22;16228;48.800;9.002;2023-05-29T00:00:50;11.30;96.90
212;DHT22;16228;48.800;9.002;2023-05-29T00:03:18;11.30;96.90
212;DHT22;16228;48.800;9.002;2023-05-29T00:05:45;11.20;96.90
212;DHT22;16228;48.800;9.002;2023-05-29T00:08:13;11.20;96.90
212;DHT22;16228;48.800;9.002;2023-05-29T00:10:41;11.10;96.90
212;DHT22;16228;48.800;9.002;2023-05-29T00:13:08;11.10;96.90
212;DHT22;16228;48.800;9.002;2023-05-29T00:15:35;11.00;96.90
212;DHT22;16228;48.800;9.002;2023-05-29T00:18:02;11.00;96.90
212;DHT22;16228;48.800;9.002;2023-05-29T00:20:30;11.00;96.90
212;DHT22;16228;48.800;9.002;2023-05-29T00:22:59;10.90;96.90
212;DHT22;16228;48.800;9.002;2023-05-29T00:25:31;10.90;96.90
212;DHT22;16228;48.800;9.002;2023-05-29T00:27:59;10.90;96.90
212;DHT22;16228;48.800;9.002;2023-05-29T00:30:26;10.90;96.90
212;DHT22;16228;48.800;9.002;2023-05-29T00:32:53;10.80;96.90
212;DHT22;16228;48.800;9.002;2023-05-29T00:35:20;10.80;96.90
212;DHT22;16228;48.800;9.002;2023-05-29T00:37:47;10.70;96.90
212;DHT22;16228;48.800;9.002;2023-05-29T00:40:14;10.70;96.90
212;DHT22;16228;48.800;9.002;2023-05-29T00:42:43;10.70;96.90
212;DHT22;16228;48.800;9.002;2023-05-29T00:45:10;10.70;96.90
212;DHT22;16228;48.800;9.002;2023-05-29T00:47:39;10.70;96.90
212;DHT22;16228;48.800;9.002;2023-05-29T00:50:08;10.70;96.90
212;DHT22;16228;48.800;9.002;2023-05-29T00:52:37;10.60;96.90
212;DHT22;16228;48.800;9.002;2023-05-29T00:55:07;10.50;96.90
212;DHT22;16228;48.800;9.002;2023-05-29T00:57:35;10.50;96.90
212;DHT22;16228;48.800;9.002;2023-05-29T01:00:06;10.50;96.90
212;DHT22;16228;48.800;9.002;2023-05-29T01:02:36;10.40;96.90
212;DHT22;16228;48.800;9.002;2023-05-29T01:05:04;10.40;96.90
212;DHT22;16228;48.800;9.002;2023-05-29T01:07:32;10.40;96.90
212;DHT22;16228;48.800;9.002;2023-05-29T01:10:00;10.30;96.90
212;DHT22;16228;48.800;9.002;2023-05-29T01:12:33;10.30;96.90
212;DHT22;16228;48.800;9.002;2023-05-29T01:15:16;10.30;96.90
212;DHT22;16228;48.800;9.002;2023-05-29T01:17:53;10.20;96.90
212;DHT22;16228;48.800;9.002;2023-05-29T01:20:27;10.20;96.90
212;DHT22;16228;48.800;9.002;2023-05-29T01:23:28;10.10;96.90
212;DHT22;16228;48.800;9.002;2023-05-29T01:26:16;10.10;96.90
212;DHT22;16228;48.800;9.002;2023-05-29T01:28:51;10.10;96.90
212;DHT22;16228;48.800;9.002;2023-05-29T01:31:23;10.10;96.90
212;DHT22;16228;48.800;9.002;2023-05-29T01:33:54;10.00;96.90
212;DHT22;16228;48.800;9.002;2023-05-29T01:36:21;10.00;96.90
212;DHT22;16228;48.800;9.002;2023-05-29T01:38:49;10.00;96.90
212;DHT22;16228;48.800;9.002;2023-05-29T01:41:17;9.90;96.90
212;DHT22;16228;48.800;9.002;2023-05-29T01:43:45;9.90;96.90
212;DHT22;16228;48.800;9.002;2023-05-29T01:46:15;9.90;96.90
212;DHT22;16228;48.800;9.002;2023-05-29T01:48:42;9.90;96.90
212;DHT22;16228;48.800;9.002;2023-05-29T01:51:10;9.90;96.90
212;DHT22;16228;48.800;9.002;2023-05-29T01:53:38;9.90;96.90
212;DHT22;16228;48.800;9.002;2023-05-29T01:56:06;9.80;96.90
212;DHT22;16228;48.800;9.002;2023-05-29T01:58:34;9.80;96.90
212;DHT22;16228;48.800;9.002;2023-05-29T02:01:02;9.70;96.90
212;DHT22;16228;48.800;9.002;2023-05-29T02:03:31;9.70;96.90
212;DHT22;16228;48.800;9.002;2023-05-29T02:05:58;9.70;96.90
212;DHT22;16228;48.800;9.002;2023-05-29T02:08:26;9.70;96.90
212;DHT22;16228;48.800;9.002;2023-05-29T02:10:54;9.60;96.90
212;DHT22;16228;48.800;9.002;2023-05-29T02:13:21;9.70;96.90
212;DHT22;16228;48.800;9.002;2023-05-29T02:15:48;9.60;96.90
212;DHT22;16228;48.800;9.002;2023-05-29T02:18:16;9.60;96.90
212;DHT22;16228;48.800;9.002;2023-05-29T02:20:46;9.50;96.90
212;DHT22;16228;48.800;9.002;2023-05-29T02:23:13;9.50;96.90
212;DHT22;16228;48.800;9.002;2023-05-29T02:25:41;9.50;96.90
212;DHT22;16228;48.800;9.002;2023-05-29T02:28:08;9.40;96.90
212;DHT22;16228;48.800;9.002;2023-05-29T02:30:35;9.40;96.90
212;DHT22;16228;48.800;9.002;2023-05-29T02:33:03;9.40;96.90
212;DHT22;16228;48.800;9.002;2023-05-29T02:35:30;9.40;96.90
212;DHT22;16228;48.800;9.002;2023-05-29T02:37:58;9.40;96.90
212;DHT22;16228;48.800;9.002;2023-05-29T02:40:26;9.30;96.90
212;DHT22;16228;48.800;9.002;2023-05-29T02:42:53;9.40;96.90
212;DHT22;16228;48.800;9.002;2023-05-29T02:45:20;9.30;96.90
212;DHT22;16228;48.800;9.002;2023-05-29T02:47:47;9.20;96.90
212;DHT22;16228;48.800;9.002;2023-05-29T02:50:15;9.20;96.90
212;DHT22;16228;48.800;9.002;2023-05-29T02:52:42;9.20;96.90
212;DHT22;16228;48.800;9.002;2023-05-29T02:55:10;9.10;96.90
212;DHT22;16228;48.800;9.002;2023-05-29T02:57:37;9.10;96.90
212;DHT22;16228;48.800;9.002;2023-05-29T03:00:06;9.10;96.90
212;DHT22;16228;48.800;9.002;2023-05-29T03:02:34;9.00;96.90
212;DHT22;16228;48.800;9.002;2023-05-29T03:05:02;9.00;96.90
212;DHT22;16228;48.800;9.002;2023-05-29T03:07:29;9.00;96.90
212;DHT22;16228;48.800;9.002;2023-05-29T03:09:56;9.00;96.90
212;DHT22;16228;48.800;9.002;2023-05-29T03:12:25;9.00;96.90
212;DHT22;16228;48.800;9.002;2023-05-29T03:14:53;9.00;96.90
212;DHT22;16228;48.800;9.002;2023-05-29T03:17:22;9.00;96.90
212;DHT22;16228;48.800;9.002;2023-05-29T03:19:49;9.00;96.90
212;DHT22;16228;48.800;9.002;2023-05-29T03:22:16;9.00;96.90
212;DHT22;16228;48.800;9.002;2023-05-29T03:24:43;8.90;96.90
212;DHT22;16228;48.800;9.002;2023-05-29T03:27:11;8.90;96.90
212;DHT22;16228;48.800;9.002;2023-05-29T03:29:39;8.90;96.90
212;DHT22;16228;48.800;9.002;2023-05-29T03:32:06;8.90;96.90
212;DHT22;16228;48.800;9.002;2023-05-29T03:34:33;8.80;96.90
212;DHT22;16228;48.800;9.002;2023-05-29T03:37:01;8.80;96.90
212;DHT22;16228;48.800;9.002;2023-05-29T03:39:28;8.70;96.90
212;DHT22;16228;48.800;9.002;2023-05-29T03:41:56;8.70;96.90
212;DHT22;16228;48.800;9.002;2023-05-29T03:44:23;8.70;96.90
212;DHT22;16228;48.800;9.002;2023-05-29T03:46:51;8.70;96.90
212;DHT22;16228;48.800;9.002;2023-05-29T03:49:19;8.70;96.90
212;DHT22;16228;48.800;9.002;2023-05-29T03:51:46;8.70;96.90
212;DHT22;16228;48.800;9.002;2023-05-29T03:54:13;8.70;96.90
212;DHT22;16228;48.800;9.002;2023-05-29T03:56:40;8.70;96.90
212;DHT22;16228;48.800;9.002;2023-05-29T03:59:07;8.70;96.90
212;DHT22;16228;48.800;9.002;2023-05-29T04:01:35;8.70;96.90
212;DHT22;16228;48.800;9.002;2023-05-29T04:04:04;8.70;96.90
212;DHT22;16228;48.800;9.002;2023-05-29T04:06:31;8.80;96.90
212;DHT22;16228;48.800;9.002;2023-05-29T04:08:58;8.90;96.90
212;DHT22;16228;48.800;9.002;2023-05-29T04:11:25;8.90;96.90
212;DHT22;16228;48.800;9.002;2023-05-29T04:13:52;8.90;96.90
212;DHT22;16228;48.800;9.002;2023-05-29T04:16:20;8.90;96.90
212;DHT22;16228;48.800;9.002;2023-05-29T04:18:47;9.00;96.90
212;DHT22;16228;48.800;9.002;2023-05-29T04:21:15;9.10;96.90
212;DHT22;16228;48.800;9.002;2023-05-29T04:23:43;9.10;96.90
212;DHT22;16228;48.800;9.002;2023-05-29T04:26:10;9.10;96.90
212;DHT22;16228;48.800;9.002;2023-05-29T04:28:38;9.20;96.90
212;DHT22;16228;48.800;9.002;2023-05-29T04:31:05;9.30;96.90
212;DHT22;16228;48.800;9.002;2023-05-29T04:33:33;9.40;96.90
212;DHT22;16228;48.800;9.002;2023-05-29T04:36:02;9.40;96.90
212;DHT22;16228;48.800;9.002;2023-05-29T04:38:31;9.40;96.90
212;DHT22;16228;48.800;9.002;2023-05-29T04:40:58;9.50;96.90
212;DHT22;16228;48.800;9.002;2023-05-29T04:43:26;9.60;96.90
212;DHT22;16228;48.800;9.002;2023-05-29T04:45:53;9.70;96.90
212;DHT22;16228;48.800;9.002;2023-05-29T04:48:21;9.70;96.90
212;DHT22;16228;48.800;9.002;2023-05-29T04:50:48;9.90;96.90
212;DHT22;16228;48.800;9.002;2023-05-29T04:53:15;10.00;96.90
212;DHT22;16228;48.800;9.002;2023-05-29T04:55:43;10.10;96.90
212;DHT22;16228;48.800;9.002;2023-05-29T04:58:11;10.20;96.90
212;DHT22;16228;48.800;9.002;2023-05-29T05:00:38;10.30;96.90
212;DHT22;16228;48.800;9.002;2023-05-29T05:03:05;10.40;96.90
212;DHT22;16228;48.800;9.002;2023-05-29T05:05:33;10.60;96.90
212;DHT22;16228;48.800;9.002;2023-05-29T05:08:00;10.70;96.90
212;DHT22;16228;48.800;9.002;2023-05-29T05:10:27;10.80;96.90
212;DHT22;16228;48.800;9.002;2023-05-29T05:12:55;11.00;96.90
212;DHT22;16228;48.800;9.002;2023-05-29T05:15:23;11.10;96.90
212;DHT22;16228;48.800;9.002;2023-05-29T05:17:50;11.20;96.90
212;DHT22;16228;48.800;9.002;2023-05-29T05:20:17;11.40;96.90
212;DHT22;16228;48.800;9.002;2023-05-29T05:22:44;11.50;96.90
212;DHT22;16228;48.800;9.002;2023-05-29T05:25:12;11.60;96.90
212;DHT22;16228;48.800;9.002;2023-05-29T05:27:39;11.80;96.90
212;DHT22;16228;48.800;9.002;2023-05-29T05:30:08;12.20;96.90
212;DHT22;16228;48.800;9.002;2023-05-29T05:32:36;12.70;96.90
212;DHT22;16228;48.800;9.002;2023-05-29T05:35:03;13.30;96.90
212;DHT22;16228;48.800;9.002;2023-05-29T05:37:30;13.80;96.90
212;DHT22;16228;48.800;9.002;2023-05-29T05:39:58;14.20;96.90
212;DHT22;16228;48.800;9.002;2023-05-29T05:42:26;14.50;96.90
212;DHT22;16228;48.800;9.002;2023-05-29T05:44:53;14.80;96.90
212;DHT22;16228;48.800;9.002;2023-05-29T05:47:21;14.90;96.90
212;DHT22;16228;48.800;9.002;2023-05-29T05:49:49;15.00;96.90
212;DHT22;16228;48.800;9.002;2023-05-29T05:52:17;15.00;96.90
212;DHT22;16228;48.800;9.002;2023-05-29T05:54:44;15.10;96.90
212;DHT22;16228;48.800;9.002;2023-05-29T05:57:11;15.10;96.90
212;DHT22;16228;48.800;9.002;2023-05-29T05:59:38;15.10;96.90
212;DHT22;16228;48.800;9.002;2023-05-29T06:02:06;15.20;96.90
212;DHT22;16228;48.800;9.002;2023-05-29T06:04:35;15.20;96.90
212;DHT22;16228;48.800;9.002;2023-05-29T06:07:02;15.20;96.90
212;DHT22;16228;48.800;9.002;2023-05-29T06:09:29;15.50;96.90
212;DHT22;16228;48.800;9.002;2023-05-29T06:11:56;15.70;96.90
212;DHT22;16228;48.800;9.002;2023-05-29T06:14:24;16.00;96.90
212;DHT22;16228;48.800;9.002;2023-05-29T06:16:51;16.20;96.90
212;DHT22;16228;48.800;9.002;2023-05-29T06:19:19;16.50;96.90
212;DHT22;16228;48.800;9.002;2023-05-29T06:21:47;16.60;96.90
212;DHT22;16228;48.800;9.002;2023-05-29T06:24:15;16.60;96.90
212;DHT22;16228;48.800;9.002;2023-05-29T06:26:42;16.90;96.90
212;DHT22;16228;48.800;9.002;2023-05-29T06:29:09;17.20;96.90
212;DHT22;16228;48.800;9.002;2023-05-29T06:31:36;17.60;96.90
212;DHT22;16228;48.800;9.002;2023-05-29T06:34:03;18.00;96.90
212;DHT22;16228;48.800;9.002;2023-05-29T06:36:31;18.20;96.90
212;DHT22;16228;48.800;9.002;2023-05-29T06:39:00;18.40;96.90
212;DHT22;16228;48.800;9.002;2023-05-29T06:41:27;18.40;96.90
212;DHT22;16228;48.800;9.002;2023-05-29T06:43:54;18.40;96.90
212;DHT22;16228;48.800;9.002;2023-05-29T06:46:21;18.50;96.90
212;DHT22;16228;48.800;9.002;2023-05-29T06:48:48;18.50;96.90
212;DHT22;16228;48.800;9.002;2023-05-29T06:51:17;18.90;96.90
212;DHT22;16228;48.800;9.002;2023-05-29T06:53:44;19.50;96.20
212;DHT22;16228;48.800;9.002;2023-05-29T06:56:12;20.30;94.50
212;DHT22;16228;48.800;9.002;2023-05-29T06:58:40;21.40;91.60
212;DHT22;16228;48.800;9.002;2023-05-29T07:01:07;22.20;88.20
212;DHT22;16228;48.800;9.002;2023-05-29T07:03:34;23.00;87.00
212;DHT22;16228;48.800;9.002;2023-05-29T07:06:02;23.80;84.10
212;DHT22;16228;48.800;9.002;2023-05-29T07:08:29;24.30;82.60
212;DHT22;16228;48.800;9.002;2023-05-29T07:10:56;24.70;80.90
212;DHT22;16228;48.800;9.002;2023-05-29T07:13:25;24.90;80.50
212;DHT22;16228;48.800;9.002;2023-05-29T07:15:52;25.20;80.00
212;DHT22;16228;48.800;9.002;2023-05-29T07:18:20;25.40;78.60
212;DHT22;16228;48.800;9.002;2023-05-29T07:20:47;25.50;78.80
212;DHT22;16228;48.800;9.002;2023-05-29T07:23:14;25.80;79.40
212;DHT22;16228;48.800;9.002;2023-05-29T07:25:41;25.90;78.00
212;DHT22;16228;48.800;9.002;2023-05-29T07:28:08;26.40;77.50
212;DHT22;16228;48.800;9.002;2023-05-29T07:30:37;27.00;76.70
212;DHT22;16228;48.800;9.002;2023-05-29T07:33:04;27.40;74.50
212;DHT22;16228;48.800;9.002;2023-05-29T07:35:32;27.60;74.60
212;DHT22;16228;48.800;9.002;2023-05-29T07:37:59;28.10;74.70
212;DHT22;16228;48.800;9.002;2023-05-29T07:40:26;28.50;74.30
212;DHT22;16228;48.800;9.002;2023-05-29T07:42:54;28.80;73.80
212;DHT22;16228;48.800;9.002;2023-05-29T07:45:21;29.20;71.20
212;DHT22;16228;48.800;9.002;2023-05-29T07:47:49;29.20;69.90
212;DHT22;16228;48.800;9.002;2023-05-29T07:50:17;29.20;71.70
212;DHT22;16228;48.800;9.002;2023-05-29T07:52:44;29.20;70.90
212;DHT22;16228;48.800;9.002;2023-05-29T07:55:11;29.10;72.50
212;DHT22;16228;48.800;9.002;2023-05-29T07:57:38;29.30;70.50
212;DHT22;16228;48.800;9.002;2023-05-29T08:00:07;29.60;69.30
212;DHT22;16228;48.800;9.002;2023-05-29T08:02:35;29.50;70.40
212;DHT22;16228;48.800;9.002;2023-05-29T08:05:04;29.50;68.70
212;DHT22;16228;48.800;9.002;2023-05-29T08:07:31;29.70;69.20
212;DHT22;16228;48.800;9.002;2023-05-29T08:09:59;29.90;68.80
212;DHT22;16228;48.800;9.002;2023-05-29T08:12:26;30.40;68.10
212;DHT22;16228;48.800;9.002;2023-05-29T08:14:53;30.60;68.00
212;DHT22;16228;48.800;9.002;2023-05-29T08:17:20;30.70;66.20
212;DHT22;16228;48.800;9.002;2023-05-29T08:19:47;30.90;68.10
212;DHT22;16228;48.800;9.002;2023-05-29T08:22:16;30.80;67.00
212;DHT22;16228;48.800;9.002;2023-05-29T08:24:43;31.00;67.10
212;DHT22;16228;48.800;9.002;2023-05-29T08:27:10;31.20;64.90
212;DHT22;16228;48.800;9.002;2023-05-29T08:29:38;31.30;66.10
212;DHT22;16228;48.800;9.002;2023-05-29T08:32:06;31.80;64.70
212;DHT22;16228;48.800;9.002;2023-05-29T08:34:33;32.00;63.10
212;DHT22;16228;48.800;9.002;2023-05-29T08:37:00;32.20;64.40
212;DHT22;16228;48.800;9.002;2023-05-29T08:39:29;32.20;63.70
212;DHT22;16228;48.800;9.002;2023-05-29T08:42:01;32.30;64.40
212;DHT22;16228;48.800;9.002;2023-05-29T08:44:30;32.40;64.00
212;DHT22;16228;48.800;9.002;2023-05-29T08:47:01;32.40;64.50
212;DHT22;16228;48.800;9.002;2023-05-29T08:49:42;32.50;63.30
212;DHT22;16228;48.800;9.002;2023-05-29T08:52:14;32.60;62.40
212;DHT22;16228;48.800;9.002;2023-05-29T08:54:43;32.90;62.00
212;DHT22;16228;48.800;9.002;2023-05-29T08:57:12;33.10;63.90
212;DHT22;16228;48.800;9.002;2023-05-29T08:59:41;33.10;61.80
212;DHT22;16228;48.800;9.002;2023-05-29T09:02:09;33.40;62.80
212;DHT22;16228;48.800;9.002;2023-05-29T09:04:37;33.40;60.70
212;DHT22;16228;48.800;9.002;2023-05-29T09:07:04;33.60;63.40
212;DHT22;16228;48.800;9.002;2023-05-29T09:09:34;33.80;62.30
212;DHT22;16228;48.800;9.002;2023-05-29T09:12:03;33.80;62.30
212;DHT22;16228;48.800;9.002;2023-05-29T09:14:36;34.00;62.00
212;DHT22;16228;48.800;9.002;2023-05-29T09:17:03;34.60;60.50
212;DHT22;16228;48.800;9.002;2023-05-29T09:19:32;34.70;62.00
212;DHT22;16228;48.800;9.002;2023-05-29T09:22:03;34.80;61.20
212;DHT22;16228;48.800;9.002;2023-05-29T09:24:32;34.70;60.90
212;DHT22;16228;48.800;9.002;2023-05-29T09:27:01;34.90;61.00
212;DHT22;16228;48.800;9.002;2023-05-29T09:29:32;35.00;60.60
212;DHT22;16228;48.800;9.002;2023-05-29T09:32:00;35.00;58.80
212;DHT22;16228;48.800;9.002;2023-05-29T09:34:31;34.60;58.10
212;DHT22;16228;48.800;9.002;2023-05-29T09:37:01;34.40;61.90
212;DHT22;16228;48.800;9.002;2023-05-29T09:39:34;34.50;58.70
212;DHT22;16228;48.800;9.002;2023-05-29T09:42:02;34.60;59.00
212;DHT22;16228;48.800;9.002;2023-05-29T09:44:32;34.80;58.50
212;DHT22;16228;48.800;9.002;2023-05-29T09:47:00;34.70;60.70
212;DHT22;16228;48.800;9.002;2023-05-29T09:49:27;35.00;58.40
212;DHT22;16228;48.800;9.002;2023-05-29T09:51:55;35.30;58.90
212;DHT22;16228;48.800;9.002;2023-05-29T09:54:27;35.40;60.70
212;DHT22;16228;48.800;9.002;2023-05-29T09:56:56;35.60;57.60
212;DHT22;16228;48.800;9.002;2023-05-29T09:59:27;35.60;57.40
212;DHT22;16228;48.800;9.002;2023-05-29T10:02:01;35.70;58.20
212;DHT22;16228;48.800;9.002;2023-05-29T10:04:30;35.70;58.00
212;DHT22;16228;48.800;9.002;2023-05-29T10:07:00;35.60;58.80
212;DHT22;16228;48.800;9.002;2023-05-29T10:09:32;35.70;60.00
212;DHT22;16228;48.800;9.002;2023-05-29T10:12:01;36.30;57.60
212;DHT22;16228;48.800;9.002;2023-05-29T10:14:33;36.80;58.10
212;DHT22;16228;48.800;9.002;2023-05-29T10:17:04;36.90;56.50
212;DHT22;16228;48.800;9.002;2023-05-29T10:19:36;37.10;53.90
212;DHT22;16228;48.800;9.002;2023-05-29T10:22:04;36.90;56.50
212;DHT22;16228;48.800;9.002;2023-05-29T10:24:33;36.80;55.70
212;DHT22;16228;48.800;9.002;2023-05-29T10:27:01;37.10;56.30
212;DHT22;16228;48.800;9.002;2023-05-29T10:29:34;37.20;57.60
212;DHT22;16228;48.800;9.002;2023-05-29T10:32:18;37.40;53.50
212;DHT22;16228;48.800;9.002;2023-05-29T10:34:50;37.40;55.50
212;DHT22;16228;48.800;9.002;2023-05-29T10:37:33;37.60;55.90
212;DHT22;16228;48.800;9.002;2023-05-29T10:40:07;37.60;54.80
212;DHT22;16228;48.800;9.002;2023-05-29T10:42:43;37.90;55.70
212;DHT22;16228;48.800;9.002;2023-05-29T10:45:11;38.20;55.40
212;DHT22;16228;48.800;9.002;2023-05-29T10:48:38;38.40;55.30
212;DHT22;16228;48.800;9.002;2023-05-29T10:51:07;38.30;55.00
212;DHT22;16228;48.800;9.002;2023-05-29T10:53:34;38.50;53.40
212;DHT22;16228;48.800;9.002;2023-05-29T10:56:08;38.30;54.60
212;DHT22;16228;48.800;9.002;2023-05-29T10:58:38;38.10;51.80
212;DHT22;16228;48.800;9.002;2023-05-29T11:01:08;37.90;53.20
212;DHT22;16228;48.800;9.002;2023-05-29T11:03:37;37.50;52.20
212;DHT22;16228;48.800;9.002;2023-05-29T11:06:05;37.20;51.30
212;DHT22;16228;48.800;9.002;2023-05-29T11:08:34;37.00;51.80
212;DHT22;16228;48.800;9.002;2023-05-29T11:11:02;37.10;51.60
212;DHT22;16228;48.800;9.002;2023-05-29T11:13:33;37.40;50.90
212;DHT22;16228;48.800;9.002;2023-05-29T11:16:13;37.40;53.30
212;DHT22;16228;48.800;9.002;2023-05-29T11:18:46;37.70;49.60
212;DHT22;16228;48.800;9.002;2023-05-29T11:21:44;37.80;51.20
212;DHT22;16228;48.800;9.002;2023-05-29T11:24:21;38.00;50.80
212;DHT22;16228;48.800;9.002;2023-05-29T11:26:51;38.20;50.70
212;DHT22;16228;48.800;9.002;2023-05-29T11:29:21;38.20;51.60
212;DHT22;16228;48.800;9.002;2023-05-29T11:31:54;38.20;50.80
212;DHT22;16228;48.800;9.002;2023-05-29T11:34:25;38.20;50.40
212;DHT22;16228;48.800;9.002;2023-05-29T11:36:56;38.10;50.30
212;DHT22;16228;48.800;9.002;2023-05-29T11:39:24;38.00;50.40
212;DHT22;16228;48.800;9.002;2023-05-29T11:41:51;37.70;48.10
212;DHT22;16228;48.800;9.002;2023-05-29T11:44:19;37.90;51.70
212;DHT22;16228;48.800;9.002;2023-05-29T11:46:46;38.10;50.40
212;DHT22;16228;48.800;9.002;2023-05-29T11:49:13;38.00;49.90
212;DHT22;16228;48.800;9.002;2023-05-29T11:52:05;37.90;50.50
212;DHT22;16228;48.800;9.002;2023-05-29T11:54:33;38.20;50.70
212;DHT22;16228;48.800;9.002;2023-05-29T11:57:00;38.40;49.20
212;DHT22;16228;48.800;9.002;2023-05-29T11:59:28;38.70;50.10
212;DHT22;16228;48.800;9.002;2023-05-29T12:01:56;38.80;51.30
212;DHT22;16228;48.800;9.002;2023-05-29T12:04:23;38.50;48.90
212;DHT22;16228;48.800;9.002;2023-05-29T12:06:50;38.10;47.10
212;DHT22;16228;48.800;9.002;2023-05-29T12:09:26;37.70;49.30
212;DHT22;16228;48.800;9.002;2023-05-29T12:11:54;37.50;49.50
212;DHT22;16228;48.800;9.002;2023-05-29T12:14:21;37.70;47.50
212;DHT22;16228;48.800;9.002;2023-05-29T12:16:48;37.80;47.90
212;DHT22;16228;48.800;9.002;2023-05-29T12:19:15;38.10;48.00
212;DHT22;16228;48.800;9.002;2023-05-29T12:21:43;38.50;46.90
212;DHT22;16228;48.800;9.002;2023-05-29T12:24:10;38.70;45.40
212;DHT22;16228;48.800;9.002;2023-05-29T12:26:39;38.70;44.90
212;DHT22;16228;48.800;9.002;2023-05-29T12:29:06;38.50;45.10
212;DHT22;16228;48.800;9.002;2023-05-29T12:31:34;38.10;45.80
212;DHT22;16228;48.800;9.002;2023-05-29T12:34:01;38.10;44.80
212;DHT22;16228;48.800;9.002;2023-05-29T12:36:29;37.50;44.00
212;DHT22;16228;48.800;9.002;2023-05-29T12:38:56;37.50;45.10
212;DHT22;16228;48.800;9.002;2023-05-29T12:41:27;37.50;44.80
212;DHT22;16228;48.800;9.002;2023-05-29T12:43:56;37.80;44.40
212;DHT22;16228;48.800;9.002;2023-05-29T12:46:24;37.90;44.40
212;DHT22;16228;48.800;9.002;2023-05-29T12:48:53;37.70;45.40
212;DHT22;16228;48.800;9.002;2023-05-29T12:51:24;37.90;44.50
212;DHT22;16228;48.800;9.002;2023-05-29T12:53:52;37.90;43.90
212;DHT22;16228;48.800;9.002;2023-05-29T12:56:21;37.60;43.60
212;DHT22;16228;48.800;9.002;2023-05-29T12:58:50;37.70;45.10
212;DHT22;16228;48.800;9.002;2023-05-29T13:01:18;37.70;43.30
212;DHT22;16228;48.800;9.002;2023-05-29T13:03:46;37.50;45.30
212;DHT22;16228;48.800;9.002;2023-05-29T13:06:13;37.30;44.70
212;DHT22;16228;48.800;9.002;2023-05-29T13:08:40;37.40;45.30
212;DHT22;16228;48.800;9.002;2023-05-29T13:11:07;37.10;47.80
212;DHT22;16228;48.800;9.002;2023-05-29T13:13:34;36.80;44.60
212;DHT22;16228;48.800;9.002;2023-05-29T13:16:01;36.70;45.90
212;DHT22;16228;48.800;9.002;2023-05-29T13:18:30;36.70;45.70
212;DHT22;16228;48.800;9.002;2023-05-29T13:20:58;36.80;45.20
212;DHT22;16228;48.800;9.002;2023-05-29T13:23:26;36.40;45.80
212;DHT22;16228;48.800;9.002;2023-05-29T13:25:53;36.60;46.10
212;DHT22;16228;48.800;9.002;2023-05-29T13:28:20;36.80;47.00
212;DHT22;16228;48.800;9.002;2023-05-29T13:30:47;36.70;45.80
212;DHT22;16228;48.800;9.002;2023-05-29T13:33:14;36.50;45.50
212;DHT22;16228;48.800;9.002;2023-05-29T13:35:43;36.60;46.10
212;DHT22;16228;48.800;9.002;2023-05-29T13:38:10;36.70;47.40
212;DHT22;16228;48.800;9.002;2023-05-29T13:40:37;36.70;46.70
212;DHT22;16228;48.800;9.002;2023-05-29T13:43:04;36.50;45.60
212;DHT22;16228;48.800;9.002;2023-05-29T13:45:31;35.70;45.40
212;DHT22;16228;48.800;9.002;2023-05-29T13:47:58;35.30;48.10
212;DHT22;16228;48.800;9.002;2023-05-29T13:50:26;34.60;45.90
212;DHT22;16228;48.800;9.002;2023-05-29T13:52:54;33.70;48.30
212;DHT22;16228;48.800;9.002;2023-05-29T13:55:21;32.70;50.20
212;DHT22;16228;48.800;9.002;2023-05-29T13:57:48;31.90;51.90
212;DHT22;16228;48.800;9.002;2023-05-29T14:00:19;31.00;53.30
212;DHT22;16228;48.800;9.002;2023-05-29T14:02:46;30.20;54.60
212;DHT22;16228;48.800;9.002;2023-05-29T14:05:14;29.60;56.00
212;DHT22;16228;48.800;9.002;2023-05-29T14:07:41;29.30;56.40
212;DHT22;16228;48.800;9.002;2023-05-29T14:10:10;29.20;57.60
212;DHT22;16228;48.800;9.002;2023-05-29T14:12:37;29.00;56.20
212;DHT22;16228;48.800;9.002;2023-05-29T14:15:05;28.80;55.80
212;DHT22;16228;48.800;9.002;2023-05-29T14:17:33;28.60;57.80
212;DHT22;16228;48.800;9.002;2023-05-29T14:20:00;28.40;59.30
212;DHT22;16228;48.800;9.002;2023-05-29T14:22:30;28.30;58.70
212;DHT22;16228;48.800;9.002;2023-05-29T14:24:57;28.10;58.30
212;DHT22;16228;48.800;9.002;2023-05-29T14:27:27;27.90;58.70
212;DHT22;16228;48.800;9.002;2023-05-29T14:29:55;27.60;58.80
212;DHT22;16228;48.800;9.002;2023-05-29T14:32:22;27.40;59.30
212;DHT22;16228;48.800;9.002;2023-05-29T14:34:49;27.30;59.80
212;DHT22;16228;48.800;9.002;2023-05-29T14:37:17;27.30;60.50
212;DHT22;16228;48.800;9.002;2023-05-29T14:39:44;27.30;61.70
212;DHT22;16228;48.800;9.002;2023-05-29T14:42:11;27.30;60.90
212;DHT22;16228;48.800;9.002;2023-05-29T14:44:40;27.30;61.40
212;DHT22;16228;48.800;9.002;2023-05-29T14:47:07;27.30;60.40
212;DHT22;16228;48.800;9.002;2023-05-29T14:49:34;27.30;62.40
212;DHT22;16228;48.800;9.002;2023-05-29T14:52:02;27.30;61.10
212;DHT22;16228;48.800;9.002;2023-05-29T14:54:30;27.30;60.80
212;DHT22;16228;48.800;9.002;2023-05-29T14:56:57;27.20;61.00
212;DHT22;16228;48.800;9.002;2023-05-29T14:59:24;27.20;62.10
212;DHT22;16228;48.800;9.002;2023-05-29T15:01:53;27.10;61.20
212;DHT22;16228;48.800;9.002;2023-05-29T15:04:20;27.00;61.90
212;DHT22;16228;48.800;9.002;2023-05-29T15:06:48;26.90;61.10
212;DHT22;16228;48.800;9.002;2023-05-29T15:09:15;26.80;61.50
212;DHT22;16228;48.800;9.002;2023-05-29T15:11:42;26.70;61.40
212;DHT22;16228;48.800;9.002;2023-05-29T15:14:10;26.70;63.70
212;DHT22;16228;48.800;9.002;2023-05-29T15:16:37;26.70;63.20
212;DHT22;16228;48.800;9.002;2023-05-29T15:19:06;26.60;64.90
212;DHT22;16228;48.800;9.002;2023-05-29T15:21:33;26.60;63.90
212;DHT22;16228;48.800;9.002;2023-05-29T15:24:00;26.40;61.70
212;DHT22;16228;48.800;9.002;2023-05-29T15:26:27;26.40;63.20
212;DHT22;16228;48.800;9.002;2023-05-29T15:28:54;26.30;62.50
212;DHT22;16228;48.800;9.002;2023-05-29T15:31:21;26.20;64.70
212;DHT22;16228;48.800;9.002;2023-05-29T15:33:49;26.20;65.00
212;DHT22;16228;48.800;9.002;2023-05-29T15:36:17;26.10;62.70
212;DHT22;16228;48.800;9.002;2023-05-29T15:38:45;26.10;63.60
212;DHT22;16228;48.800;9.002;2023-05-29T15:41:12;26.10;64.30
212;DHT22;16228;48.800;9.002;2023-05-29T15:43:40;26.00;65.60
212;DHT22;16228;48.800;9.002;2023-05-29T15:46:08;26.10;66.10
212;DHT22;16228;48.800;9.002;2023-05-29T15:48:35;26.00;64.90
212;DHT22;16228;48.800;9.002;2023-05-29T15:51:02;26.00;63.70
212;DHT22;16228;48.800;9.002;2023-05-29T15:53:31;26.00;65.20
212;DHT22;16228;48.800;9.002;2023-05-29T15:55:58;25.90;64.30
212;DHT22;16228;48.800;9.002;2023-05-29T15:58:25;25.90;64.20
212;DHT22;16228;48.800;9.002;2023-05-29T16:00:52;25.80;65.90
212;DHT22;16228;48.800;9.002;2023-05-29T16:03:19;25.70;64.30
212;DHT22;16228;48.800;9.002;2023-05-29T16:05:46;25.60;66.20
212;DHT22;16228;48.800;9.002;2023-05-29T16:08:14;25.60;65.70
212;DHT22;16228;48.800;9.002;2023-05-29T16:10:42;25.60;66.60
212;DHT22;16228;48.800;9.002;2023-05-29T16:13:10;25.60;64.70